Ocean Beach, New York
Current Conditions -  °F | °C
As of 12:56 AM on Tuesday 27 Jan 2015 (Local Time) from KISP Reporting Station
Heavy Snow Heavy Snow  
Wind Chill:   Ceiling: 900
Heat Index: 23°   Visibility: 0.25mi
Dew Point: 20°   Wind: 21mph
Humidity: 88%   Direction: 10°N
Pressure: 29.61"   Gusts: 36mph
Location:  40.65°N, 73.16°W
Report Text: KISP 270556Z 01018G31KT 1/4SM R06/5500VP6000FT +SN FZFG VV009 M05/M07 A2961 RMK AO2 PK WND 02033/0524 SLP028 SNINCR 2/10 931064 4/010 P0002 60009 T10501067 11028 21050 55018
Loading
Personal Weather Stations






























Interactive Weather Map New forecast layout! Learn more

10-Day Weather Forecast

Advertisements
Track Severe Weather on mobile